sensor_id;sensor_type;location;lat;lon;timestamp;P1;durP1;ratioP1;P2;durP2;ratioP2
18853;SDS011;9556;49.374;19.446;2024-02-16T00:01:55;9.05;;;4.03;;
18853;SDS011;9556;49.374;19.446;2024-02-16T00:04:22;8.48;;;3.88;;
18853;SDS011;9556;49.374;19.446;2024-02-16T00:06:49;8.10;;;3.70;;
18853;SDS011;9556;49.374;19.446;2024-02-16T00:09:16;10.68;;;4.20;;
18853;SDS011;9556;49.374;19.446;2024-02-16T00:11:44;8.32;;;4.22;;
18853;SDS011;9556;49.374;19.446;2024-02-16T00:14:12;7.65;;;4.00;;
18853;SDS011;9556;49.374;19.446;2024-02-16T00:16:40;7.45;;;4.13;;
18853;SDS011;9556;49.374;19.446;2024-02-16T00:19:08;12.23;;;4.00;;
18853;SDS011;9556;49.374;19.446;2024-02-16T00:21:35;12.70;;;3.88;;
18853;SDS011;9556;49.374;19.446;2024-02-16T00:24:02;10.15;;;4.40;;
18853;SDS011;9556;49.374;19.446;2024-02-16T00:26:29;9.63;;;4.30;;
18853;SDS011;9556;49.374;19.446;2024-02-16T00:28:56;7.57;;;4.07;;
18853;SDS011;9556;49.374;19.446;2024-02-16T00:31:24;9.55;;;3.88;;
18853;SDS011;9556;49.374;19.446;2024-02-16T00:33:52;7.68;;;4.00;;
18853;SDS011;9556;49.374;19.446;2024-02-16T00:36:20;9.73;;;3.70;;
18853;SDS011;9556;49.374;19.446;2024-02-16T00:38:47;9.30;;;4.05;;
18853;SDS011;9556;49.374;19.446;2024-02-16T00:41:18;6.53;;;3.72;;
18853;SDS011;9556;49.374;19.446;2024-02-16T00:43:46;11.10;;;3.97;;
18853;SDS011;9556;49.374;19.446;2024-02-16T00:46:13;7.63;;;4.28;;
18853;SDS011;9556;49.374;19.446;2024-02-16T00:48:40;11.15;;;6.03;;
18853;SDS011;9556;49.374;19.446;2024-02-16T00:51:08;16.98;;;7.80;;
18853;SDS011;9556;49.374;19.446;2024-02-16T00:53:36;17.95;;;7.88;;
18853;SDS011;9556;49.374;19.446;2024-02-16T00:56:03;10.77;;;5.15;;
18853;SDS011;9556;49.374;19.446;2024-02-16T00:58:30;8.27;;;4.18;;
18853;SDS011;9556;49.374;19.446;2024-02-16T01:00:57;9.02;;;4.30;;
18853;SDS011;9556;49.374;19.446;2024-02-16T01:03:24;8.40;;;3.85;;
18853;SDS011;9556;49.374;19.446;2024-02-16T01:05:52;11.88;;;4.35;;
18853;SDS011;9556;49.374;19.446;2024-02-16T01:08:20;9.43;;;4.10;;
18853;SDS011;9556;49.374;19.446;2024-02-16T01:10:48;8.10;;;4.18;;
18853;SDS011;9556;49.374;19.446;2024-02-16T01:13:15;10.77;;;4.90;;
18853;SDS011;9556;49.374;19.446;2024-02-16T01:15:42;9.02;;;3.83;;
18853;SDS011;9556;49.374;19.446;2024-02-16T01:18:10;8.23;;;4.20;;
18853;SDS011;9556;49.374;19.446;2024-02-16T01:20:37;7.07;;;4.03;;
18853;SDS011;9556;49.374;19.446;2024-02-16T01:23:05;15.07;;;4.38;;
18853;SDS011;9556;49.374;19.446;2024-02-16T01:25:33;7.18;;;4.15;;
18853;SDS011;9556;49.374;19.446;2024-02-16T01:28:00;9.98;;;4.38;;
18853;SDS011;9556;49.374;19.446;2024-02-16T01:30:28;7.85;;;4.35;;
18853;SDS011;9556;49.374;19.446;2024-02-16T01:32:55;8.23;;;4.40;;
18853;SDS011;9556;49.374;19.446;2024-02-16T01:35:22;8.05;;;4.05;;
18853;SDS011;9556;49.374;19.446;2024-02-16T01:37:49;8.75;;;4.53;;
18853;SDS011;9556;49.374;19.446;2024-02-16T01:40:16;11.98;;;4.47;;
18853;SDS011;9556;49.374;19.446;2024-02-16T01:42:46;9.05;;;4.55;;
18853;SDS011;9556;49.374;19.446;2024-02-16T01:45:13;10.27;;;5.18;;
18853;SDS011;9556;49.374;19.446;2024-02-16T01:47:41;12.55;;;6.78;;
18853;SDS011;9556;49.374;19.446;2024-02-16T01:50:11;15.10;;;8.68;;
18853;SDS011;9556;49.374;19.446;2024-02-16T01:52:39;18.13;;;8.90;;
18853;SDS011;9556;49.374;19.446;2024-02-16T01:55:06;14.13;;;7.43;;
18853;SDS011;9556;49.374;19.446;2024-02-16T01:57:35;11.23;;;5.18;;
18853;SDS011;9556;49.374;19.446;2024-02-16T02:00:04;9.50;;;5.07;;
18853;SDS011;9556;49.374;19.446;2024-02-16T02:02:32;11.48;;;5.43;;
18853;SDS011;9556;49.374;19.446;2024-02-16T02:04:59;8.07;;;4.65;;
18853;SDS011;9556;49.374;19.446;2024-02-16T02:07:27;8.88;;;4.57;;
18853;SDS011;9556;49.374;19.446;2024-02-16T02:09:54;9.55;;;4.30;;
18853;SDS011;9556;49.374;19.446;2024-02-16T02:12:21;8.63;;;4.60;;
18853;SDS011;9556;49.374;19.446;2024-02-16T02:14:49;12.63;;;4.93;;
18853;SDS011;9556;49.374;19.446;2024-02-16T02:17:17;9.93;;;4.97;;
18853;SDS011;9556;49.374;19.446;2024-02-16T02:19:45;10.88;;;4.68;;
18853;SDS011;9556;49.374;19.446;2024-02-16T02:22:15;8.88;;;4.88;;
18853;SDS011;9556;49.374;19.446;2024-02-16T02:24:42;12.23;;;4.80;;
18853;SDS011;9556;49.374;19.446;2024-02-16T02:27:09;7.53;;;4.50;;
18853;SDS011;9556;49.374;19.446;2024-02-16T02:29:36;8.45;;;4.80;;
18853;SDS011;9556;49.374;19.446;2024-02-16T02:32:04;9.00;;;4.47;;
18853;SDS011;9556;49.374;19.446;2024-02-16T02:34:31;8.60;;;4.65;;
18853;SDS011;9556;49.374;19.446;2024-02-16T02:36:59;8.73;;;4.50;;
18853;SDS011;9556;49.374;19.446;2024-02-16T02:39:27;9.52;;;4.60;;
18853;SDS011;9556;49.374;19.446;2024-02-16T02:41:54;8.75;;;4.57;;
18853;SDS011;9556;49.374;19.446;2024-02-16T02:44:22;8.73;;;4.53;;
18853;SDS011;9556;49.374;19.446;2024-02-16T02:46:50;7.65;;;4.70;;
18853;SDS011;9556;49.374;19.446;2024-02-16T02:49:17;8.63;;;4.55;;
18853;SDS011;9556;49.374;19.446;2024-02-16T02:51:44;6.38;;;3.83;;
18853;SDS011;9556;49.374;19.446;2024-02-16T02:54:11;6.85;;;3.85;;
18853;SDS011;9556;49.374;19.446;2024-02-16T02:56:40;7.45;;;4.60;;
18853;SDS011;9556;49.374;19.446;2024-02-16T02:59:07;9.48;;;4.65;;
18853;SDS011;9556;49.374;19.446;2024-02-16T03:01:36;9.50;;;4.68;;
18853;SDS011;9556;49.374;19.446;2024-02-16T03:04:03;8.85;;;4.55;;
18853;SDS011;9556;49.374;19.446;2024-02-16T03:06:31;8.18;;;4.68;;
18853;SDS011;9556;49.374;19.446;2024-02-16T03:08:58;7.82;;;4.30;;
18853;SDS011;9556;49.374;19.446;2024-02-16T03:11:25;7.78;;;4.70;;
18853;SDS011;9556;49.374;19.446;2024-02-16T03:13:53;10.40;;;4.32;;
18853;SDS011;9556;49.374;19.446;2024-02-16T03:16:21;8.63;;;4.38;;
18853;SDS011;9556;49.374;19.446;2024-02-16T03:18:48;7.90;;;4.55;;
18853;SDS011;9556;49.374;19.446;2024-02-16T03:21:15;8.80;;;4.65;;
18853;SDS011;9556;49.374;19.446;2024-02-16T03:23:42;8.82;;;4.40;;
18853;SDS011;9556;49.374;19.446;2024-02-16T03:26:13;10.48;;;4.95;;
18853;SDS011;9556;49.374;19.446;2024-02-16T03:28:41;8.23;;;4.72;;
18853;SDS011;9556;49.374;19.446;2024-02-16T03:31:15;9.90;;;5.10;;
18853;SDS011;9556;49.374;19.446;2024-02-16T03:33:43;9.77;;;4.30;;
18853;SDS011;9556;49.374;19.446;2024-02-16T03:36:10;8.38;;;4.65;;
18853;SDS011;9556;49.374;19.446;2024-02-16T03:38:40;10.68;;;4.70;;
18853;SDS011;9556;49.374;19.446;2024-02-16T03:41:07;9.77;;;5.07;;
18853;SDS011;9556;49.374;19.446;2024-02-16T03:43:35;9.35;;;5.25;;
18853;SDS011;9556;49.374;19.446;2024-02-16T03:46:02;16.90;;;9.32;;
18853;SDS011;9556;49.374;19.446;2024-02-16T03:48:30;17.20;;;9.70;;
18853;SDS011;9556;49.374;19.446;2024-02-16T03:50:57;21.88;;;11.10;;
18853;SDS011;9556;49.374;19.446;2024-02-16T03:53:25;16.15;;;10.07;;
18853;SDS011;9556;49.374;19.446;2024-02-16T03:55:52;12.40;;;6.97;;
18853;SDS011;9556;49.374;19.446;2024-02-16T03:58:21;11.57;;;6.00;;
18853;SDS011;9556;49.374;19.446;2024-02-16T04:00:48;9.07;;;5.38;;
18853;SDS011;9556;49.374;19.446;2024-02-16T04:03:15;10.23;;;6.15;;
18853;SDS011;9556;49.374;19.446;2024-02-16T04:05:44;12.20;;;5.90;;
18853;SDS011;9556;49.374;19.446;2024-02-16T04:08:11;11.15;;;5.90;;
18853;SDS011;9556;49.374;19.446;2024-02-16T04:10:38;9.52;;;5.53;;
18853;SDS011;9556;49.374;19.446;2024-02-16T04:13:05;9.20;;;5.18;;
18853;SDS011;9556;49.374;19.446;2024-02-16T04:15:33;10.00;;;5.75;;
18853;SDS011;9556;49.374;19.446;2024-02-16T04:18:00;10.65;;;5.53;;
18853;SDS011;9556;49.374;19.446;2024-02-16T04:20:27;10.30;;;5.50;;
18853;SDS011;9556;49.374;19.446;2024-02-16T04:22:56;9.40;;;5.25;;
18853;SDS011;9556;49.374;19.446;2024-02-16T04:25:23;11.05;;;5.85;;
18853;SDS011;9556;49.374;19.446;2024-02-16T04:27:50;10.13;;;5.90;;
18853;SDS011;9556;49.374;19.446;2024-02-16T04:30:17;10.25;;;5.82;;
18853;SDS011;9556;49.374;19.446;2024-02-16T04:32:44;10.43;;;5.78;;
18853;SDS011;9556;49.374;19.446;2024-02-16T04:35:11;11.10;;;6.20;;
18853;SDS011;9556;49.374;19.446;2024-02-16T04:37:40;11.60;;;6.22;;
18853;SDS011;9556;49.374;19.446;2024-02-16T04:40:09;10.85;;;6.25;;
18853;SDS011;9556;49.374;19.446;2024-02-16T04:42:38;9.98;;;5.85;;
18853;SDS011;9556;49.374;19.446;2024-02-16T04:45:06;10.80;;;6.30;;
18853;SDS011;9556;49.374;19.446;2024-02-16T04:47:33;13.02;;;7.93;;
18853;SDS011;9556;49.374;19.446;2024-02-16T04:50:01;18.70;;;11.18;;
18853;SDS011;9556;49.374;19.446;2024-02-16T04:52:28;22.25;;;12.43;;
18853;SDS011;9556;49.374;19.446;2024-02-16T04:54:55;22.23;;;12.18;;
18853;SDS011;9556;49.374;19.446;2024-02-16T04:57:24;10.95;;;7.05;;
18853;SDS011;9556;49.374;19.446;2024-02-16T04:59:51;11.73;;;6.97;;
18853;SDS011;9556;49.374;19.446;2024-02-16T05:02:18;11.65;;;7.03;;
18853;SDS011;9556;49.374;19.446;2024-02-16T05:04:45;12.45;;;7.30;;
18853;SDS011;9556;49.374;19.446;2024-02-16T05:07:12;13.45;;;6.93;;
18853;SDS011;9556;49.374;19.446;2024-02-16T05:09:40;21.75;;;13.50;;
18853;SDS011;9556;49.374;19.446;2024-02-16T05:12:08;13.55;;;7.93;;
18853;SDS011;9556;49.374;19.446;2024-02-16T05:14:36;12.25;;;6.70;;
18853;SDS011;9556;49.374;19.446;2024-02-16T05:17:04;11.88;;;6.88;;
18853;SDS011;9556;49.374;19.446;2024-02-16T05:19:32;13.10;;;7.03;;
18853;SDS011;9556;49.374;19.446;2024-02-16T05:22:00;13.32;;;7.45;;
18853;SDS011;9556;49.374;19.446;2024-02-16T05:24:27;18.65;;;7.03;;
18853;SDS011;9556;49.374;19.446;2024-02-16T05:26:55;22.00;;;7.15;;
18853;SDS011;9556;49.374;19.446;2024-02-16T05:29:22;24.05;;;15.45;;
18853;SDS011;9556;49.374;19.446;2024-02-16T05:31:52;26.42;;;16.50;;
18853;SDS011;9556;49.374;19.446;2024-02-16T05:34:19;33.90;;;17.13;;
18853;SDS011;9556;49.374;19.446;2024-02-16T05:36:46;30.65;;;16.95;;
18853;SDS011;9556;49.374;19.446;2024-02-16T05:39:13;29.83;;;17.40;;
18853;SDS011;9556;49.374;19.446;2024-02-16T05:41:51;25.20;;;8.65;;
18853;SDS011;9556;49.374;19.446;2024-02-16T05:44:18;20.33;;;8.15;;
18853;SDS011;9556;49.374;19.446;2024-02-16T05:46:46;16.55;;;9.38;;
18853;SDS011;9556;49.374;19.446;2024-02-16T05:49:14;34.60;;;16.10;;
18853;SDS011;9556;49.374;19.446;2024-02-16T05:51:42;41.60;;;18.20;;
18853;SDS011;9556;49.374;19.446;2024-02-16T05:54:26;37.30;;;15.60;;
18853;SDS011;9556;49.374;19.446;2024-02-16T05:56:54;24.70;;;8.63;;
18853;SDS011;9556;49.374;19.446;2024-02-16T05:59:21;21.92;;;8.20;;
18853;SDS011;9556;49.374;19.446;2024-02-16T06:01:50;13.95;;;7.57;;
18853;SDS011;9556;49.374;19.446;2024-02-16T06:04:18;16.75;;;8.25;;
18853;SDS011;9556;49.374;19.446;2024-02-16T06:06:45;14.73;;;7.85;;
18853;SDS011;9556;49.374;19.446;2024-02-16T06:09:12;17.48;;;7.82;;
18853;SDS011;9556;49.374;19.446;2024-02-16T06:11:40;19.48;;;8.07;;
18853;SDS011;9556;49.374;19.446;2024-02-16T06:14:07;14.40;;;7.82;;
18853;SDS011;9556;49.374;19.446;2024-02-16T06:16:34;14.55;;;8.00;;
18853;SDS011;9556;49.374;19.446;2024-02-16T06:19:01;16.63;;;8.00;;
18853;SDS011;9556;49.374;19.446;2024-02-16T06:21:30;15.50;;;8.30;;
18853;SDS011;9556;49.374;19.446;2024-02-16T06:23:57;12.77;;;7.82;;
18853;SDS011;9556;49.374;19.446;2024-02-16T06:26:24;19.85;;;7.95;;
18853;SDS011;9556;49.374;19.446;2024-02-16T06:28:51;15.55;;;7.95;;
18853;SDS011;9556;49.374;19.446;2024-02-16T06:31:18;14.93;;;7.72;;
18853;SDS011;9556;49.374;19.446;2024-02-16T06:33:45;16.08;;;7.55;;
18853;SDS011;9556;49.374;19.446;2024-02-16T06:36:12;13.43;;;7.38;;
18853;SDS011;9556;49.374;19.446;2024-02-16T06:38:41;14.60;;;7.65;;
18853;SDS011;9556;49.374;19.446;2024-02-16T06:41:08;15.45;;;8.38;;
18853;SDS011;9556;49.374;19.446;2024-02-16T06:43:36;16.55;;;8.05;;
18853;SDS011;9556;49.374;19.446;2024-02-16T06:46:03;19.00;;;9.35;;
18853;SDS011;9556;49.374;19.446;2024-02-16T06:48:30;22.65;;;11.80;;
18853;SDS011;9556;49.374;19.446;2024-02-16T06:50:57;18.05;;;10.18;;
18853;SDS011;9556;49.374;19.446;2024-02-16T06:53:24;16.85;;;9.77;;
18853;SDS011;9556;49.374;19.446;2024-02-16T06:55:53;17.13;;;8.68;;
18853;SDS011;9556;49.374;19.446;2024-02-16T06:58:20;16.02;;;8.95;;
18853;SDS011;9556;49.374;19.446;2024-02-16T07:00:47;18.88;;;10.25;;
18853;SDS011;9556;49.374;19.446;2024-02-16T07:03:14;15.82;;;9.35;;
18853;SDS011;9556;49.374;19.446;2024-02-16T07:05:42;12.70;;;7.68;;
18853;SDS011;9556;49.374;19.446;2024-02-16T07:08:09;18.85;;;11.02;;
18853;SDS011;9556;49.374;19.446;2024-02-16T07:10:36;19.40;;;10.40;;
18853;SDS011;9556;49.374;19.446;2024-02-16T07:13:05;16.67;;;8.68;;
18853;SDS011;9556;49.374;19.446;2024-02-16T07:15:33;14.65;;;8.02;;
18853;SDS011;9556;49.374;19.446;2024-02-16T07:18:00;16.48;;;8.13;;
18853;SDS011;9556;49.374;19.446;2024-02-16T07:20:29;15.68;;;8.27;;
18853;SDS011;9556;49.374;19.446;2024-02-16T07:22:56;16.30;;;8.43;;
18853;SDS011;9556;49.374;19.446;2024-02-16T07:25:23;14.30;;;7.90;;
18853;SDS011;9556;49.374;19.446;2024-02-16T07:27:50;12.63;;;7.45;;
18853;SDS011;9556;49.374;19.446;2024-02-16T07:30:19;12.35;;;7.72;;
18853;SDS011;9556;49.374;19.446;2024-02-16T07:32:48;13.38;;;7.60;;
18853;SDS011;9556;49.374;19.446;2024-02-16T07:35:15;13.95;;;7.78;;
18853;SDS011;9556;49.374;19.446;2024-02-16T07:37:42;13.02;;;7.82;;
18853;SDS011;9556;49.374;19.446;2024-02-16T07:40:09;15.15;;;7.85;;
18853;SDS011;9556;49.374;19.446;2024-02-16T07:42:37;13.75;;;7.57;;
18853;SDS011;9556;49.374;19.446;2024-02-16T07:45:07;14.07;;;7.30;;
18853;SDS011;9556;49.374;19.446;2024-02-16T07:47:38;18.17;;;10.55;;
18853;SDS011;9556;49.374;19.446;2024-02-16T07:50:05;23.98;;;13.75;;
18853;SDS011;9556;49.374;19.446;2024-02-16T07:52:32;25.75;;;15.30;;
18853;SDS011;9556;49.374;19.446;2024-02-16T07:55:00;23.88;;;10.57;;
18853;SDS011;9556;49.374;19.446;2024-02-16T07:57:27;14.20;;;8.15;;
18853;SDS011;9556;49.374;19.446;2024-02-16T07:59:55;14.38;;;8.38;;
18853;SDS011;9556;49.374;19.446;2024-02-16T08:02:22;14.35;;;7.25;;
18853;SDS011;9556;49.374;19.446;2024-02-16T08:04:51;16.98;;;7.25;;
18853;SDS011;9556;49.374;19.446;2024-02-16T08:07:18;13.13;;;7.80;;
18853;SDS011;9556;49.374;19.446;2024-02-16T08:09:45;13.82;;;7.63;;
18853;SDS011;9556;49.374;19.446;2024-02-16T08:12:12;14.75;;;7.30;;
18853;SDS011;9556;49.374;19.446;2024-02-16T08:14:40;15.18;;;7.70;;
18853;SDS011;9556;49.374;19.446;2024-02-16T08:17:07;15.57;;;7.70;;
18853;SDS011;9556;49.374;19.446;2024-02-16T08:19:35;12.23;;;7.53;;
18853;SDS011;9556;49.374;19.446;2024-02-16T08:22:04;12.32;;;7.43;;
18853;SDS011;9556;49.374;19.446;2024-02-16T08:24:31;14.57;;;7.70;;
18853;SDS011;9556;49.374;19.446;2024-02-16T08:26:58;20.33;;;7.70;;
18853;SDS011;9556;49.374;19.446;2024-02-16T08:29:26;13.27;;;7.65;;
18853;SDS011;9556;49.374;19.446;2024-02-16T08:31:54;13.82;;;7.57;;
18853;SDS011;9556;49.374;19.446;2024-02-16T08:34:22;13.15;;;7.38;;
18853;SDS011;9556;49.374;19.446;2024-02-16T08:36:51;14.77;;;7.65;;
18853;SDS011;9556;49.374;19.446;2024-02-16T08:39:19;12.30;;;7.63;;
18853;SDS011;9556;49.374;19.446;2024-02-16T08:41:50;14.10;;;7.53;;
18853;SDS011;9556;49.374;19.446;2024-02-16T08:44:17;15.20;;;8.07;;
18853;SDS011;9556;49.374;19.446;2024-02-16T08:46:44;15.55;;;8.40;;
18853;SDS011;9556;49.374;19.446;2024-02-16T08:49:13;25.63;;;13.90;;
18853;SDS011;9556;49.374;19.446;2024-02-16T08:51:41;28.50;;;15.82;;
18853;SDS011;9556;49.374;19.446;2024-02-16T08:54:08;26.30;;;14.38;;
18853;SDS011;9556;49.374;19.446;2024-02-16T08:56:37;18.63;;;9.32;;
18853;SDS011;9556;49.374;19.446;2024-02-16T08:59:04;20.70;;;8.68;;
18853;SDS011;9556;49.374;19.446;2024-02-16T09:01:31;24.08;;;8.27;;
18853;SDS011;9556;49.374;19.446;2024-02-16T09:03:59;19.35;;;8.45;;
18853;SDS011;9556;49.374;19.446;2024-02-16T09:06:26;23.50;;;8.02;;
18853;SDS011;9556;49.374;19.446;2024-02-16T09:08:54;22.25;;;8.45;;
18853;SDS011;9556;49.374;19.446;2024-02-16T09:11:21;18.02;;;8.30;;
18853;SDS011;9556;49.374;19.446;2024-02-16T09:13:49;23.08;;;8.43;;
18853;SDS011;9556;49.374;19.446;2024-02-16T09:16:17;17.88;;;8.52;;
18853;SDS011;9556;49.374;19.446;2024-02-16T09:18:44;26.60;;;8.40;;
18853;SDS011;9556;49.374;19.446;2024-02-16T09:21:13;20.88;;;8.20;;
18853;SDS011;9556;49.374;19.446;2024-02-16T09:23:40;18.70;;;8.60;;
18853;SDS011;9556;49.374;19.446;2024-02-16T09:26:07;22.25;;;7.28;;
18853;SDS011;9556;49.374;19.446;2024-02-16T09:28:38;22.63;;;8.13;;
18853;SDS011;9556;49.374;19.446;2024-02-16T09:31:07;23.00;;;7.47;;
18853;SDS011;9556;49.374;19.446;2024-02-16T09:33:34;15.40;;;7.47;;
18853;SDS011;9556;49.374;19.446;2024-02-16T09:36:02;17.15;;;7.57;;
18853;SDS011;9556;49.374;19.446;2024-02-16T09:38:30;17.90;;;7.30;;
18853;SDS011;9556;49.374;19.446;2024-02-16T09:40:57;16.73;;;7.57;;
18853;SDS011;9556;49.374;19.446;2024-02-16T09:43:25;16.80;;;7.22;;
18853;SDS011;9556;49.374;19.446;2024-02-16T09:45:53;13.40;;;6.07;;
18853;SDS011;9556;49.374;19.446;2024-02-16T09:48:22;10.63;;;5.60;;
18853;SDS011;9556;49.374;19.446;2024-02-16T09:50:50;9.05;;;5.47;;
18853;SDS011;9556;49.374;19.446;2024-02-16T09:53:17;12.50;;;5.25;;
18853;SDS011;9556;49.374;19.446;2024-02-16T09:55:47;15.75;;;6.47;;
18853;SDS011;9556;49.374;19.446;2024-02-16T09:58:15;13.63;;;6.65;;
18853;SDS011;9556;49.374;19.446;2024-02-16T10:00:47;16.38;;;6.80;;
18853;SDS011;9556;49.374;19.446;2024-02-16T10:03:22;15.38;;;7.05;;
18853;SDS011;9556;49.374;19.446;2024-02-16T10:05:49;15.70;;;6.47;;
18853;SDS011;9556;49.374;19.446;2024-02-16T10:08:17;14.82;;;6.55;;
18853;SDS011;9556;49.374;19.446;2024-02-16T10:10:44;12.68;;;6.00;;
18853;SDS011;9556;49.374;19.446;2024-02-16T10:13:11;9.70;;;4.88;;
18853;SDS011;9556;49.374;19.446;2024-02-16T10:15:39;17.65;;;4.63;;
18853;SDS011;9556;49.374;19.446;2024-02-16T10:18:06;8.55;;;4.85;;
18853;SDS011;9556;49.374;19.446;2024-02-16T10:20:35;10.13;;;4.03;;
18853;SDS011;9556;49.374;19.446;2024-02-16T10:23:04;12.18;;;4.50;;
18853;SDS011;9556;49.374;19.446;2024-02-16T10:25:31;10.73;;;3.97;;
18853;SDS011;9556;49.374;19.446;2024-02-16T10:27:58;11.70;;;4.07;;
18853;SDS011;9556;49.374;19.446;2024-02-16T10:30:30;6.93;;;3.92;;
18853;SDS011;9556;49.374;19.446;2024-02-16T10:32:58;7.18;;;4.05;;
18853;SDS011;9556;49.374;19.446;2024-02-16T10:35:27;9.60;;;3.35;;
18853;SDS011;9556;49.374;19.446;2024-02-16T10:37:56;9.73;;;3.55;;
18853;SDS011;9556;49.374;19.446;2024-02-16T10:40:24;6.00;;;3.00;;
18853;SDS011;9556;49.374;19.446;2024-02-16T10:42:53;10.20;;;3.10;;
18853;SDS011;9556;49.374;19.446;2024-02-16T10:45:20;13.57;;;3.20;;
18853;SDS011;9556;49.374;19.446;2024-02-16T10:47:47;6.05;;;2.85;;
18853;SDS011;9556;49.374;19.446;2024-02-16T10:50:15;8.55;;;2.88;;
18853;SDS011;9556;49.374;19.446;2024-02-16T10:52:42;5.25;;;3.05;;
18853;SDS011;9556;49.374;19.446;2024-02-16T10:55:12;5.47;;;2.67;;
18853;SDS011;9556;49.374;19.446;2024-02-16T10:57:40;7.63;;;2.90;;
18853;SDS011;9556;49.374;19.446;2024-02-16T11:00:08;4.03;;;2.85;;
18853;SDS011;9556;49.374;19.446;2024-02-16T11:02:50;5.15;;;2.63;;
18853;SDS011;9556;49.374;19.446;2024-02-16T11:05:18;3.45;;;2.40;;
18853;SDS011;9556;49.374;19.446;2024-02-16T11:07:45;5.60;;;2.10;;
18853;SDS011;9556;49.374;19.446;2024-02-16T11:10:13;3.58;;;2.28;;
18853;SDS011;9556;49.374;19.446;2024-02-16T11:12:42;4.10;;;2.15;;
18853;SDS011;9556;49.374;19.446;2024-02-16T11:15:13;4.38;;;2.10;;
18853;SDS011;9556;49.374;19.446;2024-02-16T11:17:40;4.43;;;2.72;;
18853;SDS011;9556;49.374;19.446;2024-02-16T11:20:07;5.35;;;2.42;;
18853;SDS011;9556;49.374;19.446;2024-02-16T11:22:36;4.68;;;1.95;;
18853;SDS011;9556;49.374;19.446;2024-02-16T11:25:04;17.05;;;2.10;;
18853;SDS011;9556;49.374;19.446;2024-02-16T11:27:34;3.30;;;2.25;;
18853;SDS011;9556;49.374;19.446;2024-02-16T11:30:02;4.45;;;2.22;;
18853;SDS011;9556;49.374;19.446;2024-02-16T11:32:32;4.15;;;2.10;;
18853;SDS011;9556;49.374;19.446;2024-02-16T11:35:04;3.95;;;1.80;;
18853;SDS011;9556;49.374;19.446;2024-02-16T11:37:31;2.83;;;1.70;;
18853;SDS011;9556;49.374;19.446;2024-02-16T11:39:59;4.32;;;2.00;;
18853;SDS011;9556;49.374;19.446;2024-02-16T11:42:26;3.88;;;2.10;;
18853;SDS011;9556;49.374;19.446;2024-02-16T11:44:55;4.82;;;1.90;;
18853;SDS011;9556;49.374;19.446;2024-02-16T11:47:22;5.63;;;1.90;;
18853;SDS011;9556;49.374;19.446;2024-02-16T11:49:59;2.65;;;1.40;;
18853;SDS011;9556;49.374;19.446;2024-02-16T11:52:26;3.10;;;1.73;;
18853;SDS011;9556;49.374;19.446;2024-02-16T11:54:54;3.72;;;1.65;;
18853;SDS011;9556;49.374;19.446;2024-02-16T11:57:21;2.00;;;1.60;;
18853;SDS011;9556;49.374;19.446;2024-02-16T11:59:48;4.43;;;1.98;;
18853;SDS011;9556;49.374;19.446;2024-02-16T12:02:18;10.15;;;1.55;;
18853;SDS011;9556;49.374;19.446;2024-02-16T12:04:46;2.30;;;1.63;;
18853;SDS011;9556;49.374;19.446;2024-02-16T12:07:13;2.78;;;1.60;;
18853;SDS011;9556;49.374;19.446;2024-02-16T12:09:40;4.90;;;1.70;;
18853;SDS011;9556;49.374;19.446;2024-02-16T12:12:07;3.53;;;1.50;;
18853;SDS011;9556;49.374;19.446;2024-02-16T12:14:34;2.20;;;1.58;;
18853;SDS011;9556;49.374;19.446;2024-02-16T12:17:03;1.95;;;1.35;;
18853;SDS011;9556;49.374;19.446;2024-02-16T12:19:31;4.80;;;1.30;;
18853;SDS011;9556;49.374;19.446;2024-02-16T12:21:58;2.20;;;1.58;;
18853;SDS011;9556;49.374;19.446;2024-02-16T12:24:25;2.17;;;1.60;;
18853;SDS011;9556;49.374;19.446;2024-02-16T12:26:53;2.38;;;1.45;;
18853;SDS011;9556;49.374;19.446;2024-02-16T12:29:20;2.08;;;1.52;;
18853;SDS011;9556;49.374;19.446;2024-02-16T12:31:47;2.50;;;1.65;;
18853;SDS011;9556;49.374;19.446;2024-02-16T12:34:14;3.17;;;1.75;;
18853;SDS011;9556;49.374;19.446;2024-02-16T12:36:43;5.07;;;1.40;;
18853;SDS011;9556;49.374;19.446;2024-02-16T12:39:10;3.47;;;1.67;;
18853;SDS011;9556;49.374;19.446;2024-02-16T12:41:39;2.67;;;1.60;;
18853;SDS011;9556;49.374;19.446;2024-02-16T12:44:08;2.85;;;1.63;;
18853;SDS011;9556;49.374;19.446;2024-02-16T12:46:35;4.10;;;1.60;;
18853;SDS011;9556;49.374;19.446;2024-02-16T12:49:03;6.90;;;2.00;;
18853;SDS011;9556;49.374;19.446;2024-02-16T12:51:31;14.25;;;2.00;;
18853;SDS011;9556;49.374;19.446;2024-02-16T12:53:59;4.35;;;1.30;;
18853;SDS011;9556;49.374;19.446;2024-02-16T12:56:28;3.42;;;1.58;;
18853;SDS011;9556;49.374;19.446;2024-02-16T12:58:56;2.65;;;1.70;;
18853;SDS011;9556;49.374;19.446;2024-02-16T13:01:25;3.88;;;2.05;;
18853;SDS011;9556;49.374;19.446;2024-02-16T13:03:52;3.83;;;1.83;;
18853;SDS011;9556;49.374;19.446;2024-02-16T13:06:19;3.70;;;1.80;;
18853;SDS011;9556;49.374;19.446;2024-02-16T13:08:46;3.83;;;2.03;;
18853;SDS011;9556;49.374;19.446;2024-02-16T13:11:15;8.02;;;2.05;;
18853;SDS011;9556;49.374;19.446;2024-02-16T13:13:42;7.97;;;2.13;;
18853;SDS011;9556;49.374;19.446;2024-02-16T13:16:09;5.57;;;1.70;;
18853;SDS011;9556;49.374;19.446;2024-02-16T13:18:36;4.97;;;1.88;;
18853;SDS011;9556;49.374;19.446;2024-02-16T13:21:03;4.57;;;1.60;;
18853;SDS011;9556;49.374;19.446;2024-02-16T13:23:31;4.38;;;1.88;;
18853;SDS011;9556;49.374;19.446;2024-02-16T13:25:58;2.80;;;1.67;;
18853;SDS011;9556;49.374;19.446;2024-02-16T13:28:26;2.80;;;1.60;;
18853;SDS011;9556;49.374;19.446;2024-02-16T13:30:54;7.65;;;2.03;;
18853;SDS011;9556;49.374;19.446;2024-02-16T13:33:21;5.43;;;1.98;;
18853;SDS011;9556;49.374;19.446;2024-02-16T13:35:48;4.95;;;1.70;;
18853;SDS011;9556;49.374;19.446;2024-02-16T13:38:15;3.05;;;1.83;;
18853;SDS011;9556;49.374;19.446;2024-02-16T13:40:42;6.45;;;2.13;;
18853;SDS011;9556;49.374;19.446;2024-02-16T13:43:10;4.25;;;1.60;;
18853;SDS011;9556;49.374;19.446;2024-02-16T13:45:51;3.28;;;1.60;;
18853;SDS011;9556;49.374;19.446;2024-02-16T13:48:18;6.45;;;1.63;;
18853;SDS011;9556;49.374;19.446;2024-02-16T13:50:45;3.03;;;1.90;;
18853;SDS011;9556;49.374;19.446;2024-02-16T13:53:13;6.90;;;1.70;;
18853;SDS011;9556;49.374;19.446;2024-02-16T13:55:40;5.15;;;1.90;;
18853;SDS011;9556;49.374;19.446;2024-02-16T13:58:08;4.30;;;1.63;;
18853;SDS011;9556;49.374;19.446;2024-02-16T14:00:36;3.95;;;1.90;;
18853;SDS011;9556;49.374;19.446;2024-02-16T14:03:04;13.55;;;1.73;;
18853;SDS011;9556;49.374;19.446;2024-02-16T14:05:33;8.73;;;1.48;;
18853;SDS011;9556;49.374;19.446;2024-02-16T14:08:01;4.03;;;1.77;;
18853;SDS011;9556;49.374;19.446;2024-02-16T14:10:28;4.75;;;1.60;;
18853;SDS011;9556;49.374;19.446;2024-02-16T14:12:55;4.95;;;1.55;;
18853;SDS011;9556;49.374;19.446;2024-02-16T14:15:23;5.25;;;1.60;;
18853;SDS011;9556;49.374;19.446;2024-02-16T14:17:50;6.53;;;1.80;;
18853;SDS011;9556;49.374;19.446;2024-02-16T14:20:19;5.70;;;1.80;;
18853;SDS011;9556;49.374;19.446;2024-02-16T14:22:46;3.78;;;1.70;;
18853;SDS011;9556;49.374;19.446;2024-02-16T14:25:14;3.88;;;1.48;;
18853;SDS011;9556;49.374;19.446;2024-02-16T14:27:41;6.90;;;1.65;;
18853;SDS011;9556;49.374;19.446;2024-02-16T14:30:09;3.38;;;1.45;;
18853;SDS011;9556;49.374;19.446;2024-02-16T14:32:36;7.50;;;1.63;;
18853;SDS011;9556;49.374;19.446;2024-02-16T14:35:03;5.70;;;1.60;;
18853;SDS011;9556;49.374;19.446;2024-02-16T14:37:32;4.18;;;1.50;;
18853;SDS011;9556;49.374;19.446;2024-02-16T14:40:00;5.60;;;1.92;;
18853;SDS011;9556;49.374;19.446;2024-02-16T14:42:30;3.13;;;1.50;;
18853;SDS011;9556;49.374;19.446;2024-02-16T14:44:57;4.47;;;1.77;;